sensor_id;sensor_type;location;lat;lon;timestamp;temperature;humidity
14735;DHT22;7458;49.002;8.472;2023-05-07T00:00:03;16.40;99.90
14735;DHT22;7458;49.002;8.472;2023-05-07T00:04:59;16.30;99.90
14735;DHT22;7458;49.002;8.472;2023-05-07T00:07:25;16.30;99.90
14735;DHT22;7458;49.002;8.472;2023-05-07T00:09:51;16.20;99.90
14735;DHT22;7458;49.002;8.472;2023-05-07T00:12:16;16.30;99.90
14735;DHT22;7458;49.002;8.472;2023-05-07T00:14:42;16.20;99.90
14735;DHT22;7458;49.002;8.472;2023-05-07T00:17:08;16.00;99.90
14735;DHT22;7458;49.002;8.472;2023-05-07T00:19:34;16.20;99.90
14735;DHT22;7458;49.002;8.472;2023-05-07T00:22:00;16.10;99.90
14735;DHT22;7458;49.002;8.472;2023-05-07T00:24:25;16.00;99.90
14735;DHT22;7458;49.002;8.472;2023-05-07T00:26:51;16.10;99.90
14735;DHT22;7458;49.002;8.472;2023-05-07T00:29:18;15.80;99.90
14735;DHT22;7458;49.002;8.472;2023-05-07T00:31:44;15.90;99.90
14735;DHT22;7458;49.002;8.472;2023-05-07T00:34:09;15.90;99.90
14735;DHT22;7458;49.002;8.472;2023-05-07T00:36:35;15.90;99.90
14735;DHT22;7458;49.002;8.472;2023-05-07T00:39:01;16.00;99.90
14735;DHT22;7458;49.002;8.472;2023-05-07T00:43:58;15.90;99.90
14735;DHT22;7458;49.002;8.472;2023-05-07T00:46:24;15.90;99.90
14735;DHT22;7458;49.002;8.472;2023-05-07T00:48:50;15.80;99.90
14735;DHT22;7458;49.002;8.472;2023-05-07T00:51:17;15.80;99.90
14735;DHT22;7458;49.002;8.472;2023-05-07T00:53:44;16.70;99.90
14735;DHT22;7458;49.002;8.472;2023-05-07T00:56:10;15.70;99.90
14735;DHT22;7458;49.002;8.472;2023-05-07T00:58:37;15.80;99.90
14735;DHT22;7458;49.002;8.472;2023-05-07T01:01:03;15.80;99.90
14735;DHT22;7458;49.002;8.472;2023-05-07T01:03:29;15.80;99.90
14735;DHT22;7458;49.002;8.472;2023-05-07T01:05:57;15.70;99.90
14735;DHT22;7458;49.002;8.472;2023-05-07T01:08:25;15.80;99.90
14735;DHT22;7458;49.002;8.472;2023-05-07T01:10:54;15.80;99.90
14735;DHT22;7458;49.002;8.472;2023-05-07T01:15:48;15.70;99.90
14735;DHT22;7458;49.002;8.472;2023-05-07T01:20:41;15.60;99.90
14735;DHT22;7458;49.002;8.472;2023-05-07T01:23:07;15.50;99.90
14735;DHT22;7458;49.002;8.472;2023-05-07T01:25:35;15.40;99.90
14735;DHT22;7458;49.002;8.472;2023-05-07T01:28:01;15.90;99.90
14735;DHT22;7458;49.002;8.472;2023-05-07T01:30:27;15.50;99.90
14735;DHT22;7458;49.002;8.472;2023-05-07T01:33:08;15.30;99.90
14735;DHT22;7458;49.002;8.472;2023-05-07T01:35:40;15.70;99.90
14735;DHT22;7458;49.002;8.472;2023-05-07T01:38:09;15.40;99.90
14735;DHT22;7458;49.002;8.472;2023-05-07T01:40:35;14.90;99.90
14735;DHT22;7458;49.002;8.472;2023-05-07T01:43:02;15.40;99.90
14735;DHT22;7458;49.002;8.472;2023-05-07T01:45:29;15.70;99.90
14735;DHT22;7458;49.002;8.472;2023-05-07T01:47:58;15.30;99.90
14735;DHT22;7458;49.002;8.472;2023-05-07T01:50:25;15.40;99.90
14735;DHT22;7458;49.002;8.472;2023-05-07T01:52:51;15.20;99.90
14735;DHT22;7458;49.002;8.472;2023-05-07T01:55:17;15.30;99.90
14735;DHT22;7458;49.002;8.472;2023-05-07T01:57:43;15.50;99.90
14735;DHT22;7458;49.002;8.472;2023-05-07T02:00:09;15.30;99.90
14735;DHT22;7458;49.002;8.472;2023-05-07T02:02:35;14.90;99.90
14735;DHT22;7458;49.002;8.472;2023-05-07T02:05:01;14.80;99.90
14735;DHT22;7458;49.002;8.472;2023-05-07T02:07:27;15.10;99.90
14735;DHT22;7458;49.002;8.472;2023-05-07T02:12:21;14.90;99.90
14735;DHT22;7458;49.002;8.472;2023-05-07T02:14:47;15.00;99.90
14735;DHT22;7458;49.002;8.472;2023-05-07T02:17:13;15.30;99.90
14735;DHT22;7458;49.002;8.472;2023-05-07T02:19:39;15.30;99.90
14735;DHT22;7458;49.002;8.472;2023-05-07T02:22:04;15.00;99.90
14735;DHT22;7458;49.002;8.472;2023-05-07T02:24:30;15.00;99.90
14735;DHT22;7458;49.002;8.472;2023-05-07T02:26:56;15.20;99.90
14735;DHT22;7458;49.002;8.472;2023-05-07T02:29:22;15.40;99.90
14735;DHT22;7458;49.002;8.472;2023-05-07T02:31:47;15.00;99.90
14735;DHT22;7458;49.002;8.472;2023-05-07T02:36:44;15.00;99.90
14735;DHT22;7458;49.002;8.472;2023-05-07T02:39:11;14.90;99.90
14735;DHT22;7458;49.002;8.472;2023-05-07T02:41:37;14.90;99.90
14735;DHT22;7458;49.002;8.472;2023-05-07T02:44:04;14.60;99.90
14735;DHT22;7458;49.002;8.472;2023-05-07T02:46:29;14.80;99.90
14735;DHT22;7458;49.002;8.472;2023-05-07T02:48:55;14.70;99.90
14735;DHT22;7458;49.002;8.472;2023-05-07T02:51:22;14.90;99.90
14735;DHT22;7458;49.002;8.472;2023-05-07T02:53:48;14.80;99.90
14735;DHT22;7458;49.002;8.472;2023-05-07T02:56:14;14.70;99.90
14735;DHT22;7458;49.002;8.472;2023-05-07T02:58:40;14.50;99.90
14735;DHT22;7458;49.002;8.472;2023-05-07T03:01:08;14.50;99.90
14735;DHT22;7458;49.002;8.472;2023-05-07T03:03:34;14.60;99.90
14735;DHT22;7458;49.002;8.472;2023-05-07T03:10:53;14.80;99.90
14735;DHT22;7458;49.002;8.472;2023-05-07T03:13:19;14.50;99.90
14735;DHT22;7458;49.002;8.472;2023-05-07T03:15:44;14.60;99.90
14735;DHT22;7458;49.002;8.472;2023-05-07T03:18:16;14.50;99.90
14735;DHT22;7458;49.002;8.472;2023-05-07T03:20:48;14.70;99.90
14735;DHT22;7458;49.002;8.472;2023-05-07T03:23:14;14.50;99.90
14735;DHT22;7458;49.002;8.472;2023-05-07T03:25:40;14.60;99.90
14735;DHT22;7458;49.002;8.472;2023-05-07T03:28:06;14.60;99.90
14735;DHT22;7458;49.002;8.472;2023-05-07T03:30:31;14.10;99.90
14735;DHT22;7458;49.002;8.472;2023-05-07T03:32:57;14.10;99.90
14735;DHT22;7458;49.002;8.472;2023-05-07T03:37:49;14.30;99.90
14735;DHT22;7458;49.002;8.472;2023-05-07T03:40:14;14.40;99.90
14735;DHT22;7458;49.002;8.472;2023-05-07T03:42:40;14.60;99.90
14735;DHT22;7458;49.002;8.472;2023-05-07T03:45:06;14.30;99.90
14735;DHT22;7458;49.002;8.472;2023-05-07T03:47:33;14.40;99.90
14735;DHT22;7458;49.002;8.472;2023-05-07T03:49:58;14.30;99.90
14735;DHT22;7458;49.002;8.472;2023-05-07T03:52:24;14.10;99.90
14735;DHT22;7458;49.002;8.472;2023-05-07T03:54:54;14.10;99.90
14735;DHT22;7458;49.002;8.472;2023-05-07T03:57:20;14.20;99.90
14735;DHT22;7458;49.002;8.472;2023-05-07T04:02:12;14.40;99.90
14735;DHT22;7458;49.002;8.472;2023-05-07T04:04:38;14.20;99.90
14735;DHT22;7458;49.002;8.472;2023-05-07T04:07:04;14.20;99.90
14735;DHT22;7458;49.002;8.472;2023-05-07T04:09:29;14.10;99.90
14735;DHT22;7458;49.002;8.472;2023-05-07T04:11:55;14.20;99.90
14735;DHT22;7458;49.002;8.472;2023-05-07T04:14:21;13.80;99.90
14735;DHT22;7458;49.002;8.472;2023-05-07T04:19:13;14.10;99.90
14735;DHT22;7458;49.002;8.472;2023-05-07T04:21:38;14.10;99.90
14735;DHT22;7458;49.002;8.472;2023-05-07T04:24:05;14.10;99.90
14735;DHT22;7458;49.002;8.472;2023-05-07T04:26:31;14.10;99.90
14735;DHT22;7458;49.002;8.472;2023-05-07T04:28:57;14.10;99.90
14735;DHT22;7458;49.002;8.472;2023-05-07T04:31:24;14.10;99.90
14735;DHT22;7458;49.002;8.472;2023-05-07T04:33:50;14.30;99.90
14735;DHT22;7458;49.002;8.472;2023-05-07T04:36:17;14.30;99.90
14735;DHT22;7458;49.002;8.472;2023-05-07T04:38:43;14.40;99.90
14735;DHT22;7458;49.002;8.472;2023-05-07T04:41:09;14.30;99.90
14735;DHT22;7458;49.002;8.472;2023-05-07T04:43:34;14.30;99.90
14735;DHT22;7458;49.002;8.472;2023-05-07T04:46:00;14.30;99.90
14735;DHT22;7458;49.002;8.472;2023-05-07T04:48:26;14.30;99.90
14735;DHT22;7458;49.002;8.472;2023-05-07T04:50:52;14.20;99.90
14735;DHT22;7458;49.002;8.472;2023-05-07T04:53:19;14.10;99.90
14735;DHT22;7458;49.002;8.472;2023-05-07T04:55:45;14.30;99.90
14735;DHT22;7458;49.002;8.472;2023-05-07T04:58:11;14.50;99.90
14735;DHT22;7458;49.002;8.472;2023-05-07T05:00:38;14.40;99.90
14735;DHT22;7458;49.002;8.472;2023-05-07T05:05:33;14.40;99.90
14735;DHT22;7458;49.002;8.472;2023-05-07T05:07:59;14.90;99.90
14735;DHT22;7458;49.002;8.472;2023-05-07T05:10:25;14.80;99.90
14735;DHT22;7458;49.002;8.472;2023-05-07T05:12:51;14.80;99.90
14735;DHT22;7458;49.002;8.472;2023-05-07T05:15:17;15.10;99.90
14735;DHT22;7458;49.002;8.472;2023-05-07T05:17:42;15.10;99.90
14735;DHT22;7458;49.002;8.472;2023-05-07T05:20:08;15.20;99.90
14735;DHT22;7458;49.002;8.472;2023-05-07T05:22:36;15.40;99.90
14735;DHT22;7458;49.002;8.472;2023-05-07T05:25:01;15.30;99.90
14735;DHT22;7458;49.002;8.472;2023-05-07T05:27:28;15.20;99.90
14735;DHT22;7458;49.002;8.472;2023-05-07T05:29:54;15.40;99.90
14735;DHT22;7458;49.002;8.472;2023-05-07T05:32:20;15.40;99.90
14735;DHT22;7458;49.002;8.472;2023-05-07T05:34:45;15.70;99.90
14735;DHT22;7458;49.002;8.472;2023-05-07T05:37:11;15.50;99.90
14735;DHT22;7458;49.002;8.472;2023-05-07T05:39:37;15.60;99.90
14735;DHT22;7458;49.002;8.472;2023-05-07T05:42:03;15.70;99.90
14735;DHT22;7458;49.002;8.472;2023-05-07T05:44:28;15.90;99.90
14735;DHT22;7458;49.002;8.472;2023-05-07T05:46:54;16.20;99.90
14735;DHT22;7458;49.002;8.472;2023-05-07T05:49:22;16.40;99.90
14735;DHT22;7458;49.002;8.472;2023-05-07T05:51:48;16.70;99.90
14735;DHT22;7458;49.002;8.472;2023-05-07T05:54:14;17.10;99.90
14735;DHT22;7458;49.002;8.472;2023-05-07T05:56:41;17.20;99.90
14735;DHT22;7458;49.002;8.472;2023-05-07T05:59:07;17.30;99.90
14735;DHT22;7458;49.002;8.472;2023-05-07T06:01:33;17.30;99.90
14735;DHT22;7458;49.002;8.472;2023-05-07T06:03:59;17.40;99.90
14735;DHT22;7458;49.002;8.472;2023-05-07T06:06:24;17.50;99.90
14735;DHT22;7458;49.002;8.472;2023-05-07T06:08:51;17.20;99.90
14735;DHT22;7458;49.002;8.472;2023-05-07T06:11:17;17.30;99.90
14735;DHT22;7458;49.002;8.472;2023-05-07T06:13:42;17.50;99.90
14735;DHT22;7458;49.002;8.472;2023-05-07T06:16:08;17.60;99.90
14735;DHT22;7458;49.002;8.472;2023-05-07T06:18:34;17.80;99.90
14735;DHT22;7458;49.002;8.472;2023-05-07T06:21:01;18.00;99.90
14735;DHT22;7458;49.002;8.472;2023-05-07T06:23:27;18.40;99.90
14735;DHT22;7458;49.002;8.472;2023-05-07T06:25:53;19.20;99.90
14735;DHT22;7458;49.002;8.472;2023-05-07T06:28:18;19.60;99.90
14735;DHT22;7458;49.002;8.472;2023-05-07T06:30:44;19.60;99.90
14735;DHT22;7458;49.002;8.472;2023-05-07T06:33:13;19.70;99.90
14735;DHT22;7458;49.002;8.472;2023-05-07T06:35:38;19.50;99.90
14735;DHT22;7458;49.002;8.472;2023-05-07T06:38:04;19.30;99.90
14735;DHT22;7458;49.002;8.472;2023-05-07T06:40:30;19.40;99.90
14735;DHT22;7458;49.002;8.472;2023-05-07T06:42:56;20.40;99.90
14735;DHT22;7458;49.002;8.472;2023-05-07T06:45:21;22.00;99.90
14735;DHT22;7458;49.002;8.472;2023-05-07T06:47:47;23.60;99.80
14735;DHT22;7458;49.002;8.472;2023-05-07T06:50:13;24.90;94.20
14735;DHT22;7458;49.002;8.472;2023-05-07T06:52:41;26.00;94.10
14735;DHT22;7458;49.002;8.472;2023-05-07T06:55:07;26.00;86.70
14735;DHT22;7458;49.002;8.472;2023-05-07T07:00:00;24.30;84.40
14735;DHT22;7458;49.002;8.472;2023-05-07T07:02:26;23.70;88.60
14735;DHT22;7458;49.002;8.472;2023-05-07T07:04:51;23.20;90.20
14735;DHT22;7458;49.002;8.472;2023-05-07T07:07:17;22.70;90.60
14735;DHT22;7458;49.002;8.472;2023-05-07T07:09:46;24.00;90.20
14735;DHT22;7458;49.002;8.472;2023-05-07T07:12:14;25.90;84.60
14735;DHT22;7458;49.002;8.472;2023-05-07T07:17:06;29.00;66.60
14735;DHT22;7458;49.002;8.472;2023-05-07T07:19:32;30.50;60.70
14735;DHT22;7458;49.002;8.472;2023-05-07T07:21:57;31.40;58.20
14735;DHT22;7458;49.002;8.472;2023-05-07T07:24:23;32.00;54.90
14735;DHT22;7458;49.002;8.472;2023-05-07T07:26:49;31.20;53.90
14735;DHT22;7458;49.002;8.472;2023-05-07T07:29:15;29.50;54.60
14735;DHT22;7458;49.002;8.472;2023-05-07T07:31:40;27.60;57.70
14735;DHT22;7458;49.002;8.472;2023-05-07T07:34:06;26.50;61.60
14735;DHT22;7458;49.002;8.472;2023-05-07T07:36:32;26.50;63.00
14735;DHT22;7458;49.002;8.472;2023-05-07T07:38:57;26.80;62.60
14735;DHT22;7458;49.002;8.472;2023-05-07T07:41:23;27.10;61.60
14735;DHT22;7458;49.002;8.472;2023-05-07T07:43:49;27.50;62.00
14735;DHT22;7458;49.002;8.472;2023-05-07T07:46:14;26.70;61.70
14735;DHT22;7458;49.002;8.472;2023-05-07T07:48:40;26.00;63.30
14735;DHT22;7458;49.002;8.472;2023-05-07T07:51:06;25.20;66.60
14735;DHT22;7458;49.002;8.472;2023-05-07T07:53:32;24.70;68.70
14735;DHT22;7458;49.002;8.472;2023-05-07T07:55:57;24.10;70.70
14735;DHT22;7458;49.002;8.472;2023-05-07T07:58:23;23.90;72.60
14735;DHT22;7458;49.002;8.472;2023-05-07T08:00:50;24.10;72.70
14735;DHT22;7458;49.002;8.472;2023-05-07T08:05:42;25.00;71.20
14735;DHT22;7458;49.002;8.472;2023-05-07T08:08:08;25.40;70.00
14735;DHT22;7458;49.002;8.472;2023-05-07T08:10:34;25.80;68.50
14735;DHT22;7458;49.002;8.472;2023-05-07T08:13:03;26.20;68.60
14735;DHT22;7458;49.002;8.472;2023-05-07T08:15:30;26.80;66.00
14735;DHT22;7458;49.002;8.472;2023-05-07T08:17:56;27.10;64.80
14735;DHT22;7458;49.002;8.472;2023-05-07T08:20:23;27.40;63.20
14735;DHT22;7458;49.002;8.472;2023-05-07T08:22:49;27.50;62.00
14735;DHT22;7458;49.002;8.472;2023-05-07T08:25:16;27.70;60.90
14735;DHT22;7458;49.002;8.472;2023-05-07T08:27:42;27.80;61.80
14735;DHT22;7458;49.002;8.472;2023-05-07T08:30:08;27.70;59.80
14735;DHT22;7458;49.002;8.472;2023-05-07T08:32:35;27.70;61.00
14735;DHT22;7458;49.002;8.472;2023-05-07T08:35:00;27.50;60.10
14735;DHT22;7458;49.002;8.472;2023-05-07T08:37:26;27.10;60.10
14735;DHT22;7458;49.002;8.472;2023-05-07T08:39:52;26.60;62.30
14735;DHT22;7458;49.002;8.472;2023-05-07T08:42:18;26.20;62.60
14735;DHT22;7458;49.002;8.472;2023-05-07T08:44:46;26.20;64.20
14735;DHT22;7458;49.002;8.472;2023-05-07T08:47:12;26.20;63.60
14735;DHT22;7458;49.002;8.472;2023-05-07T08:49:38;26.30;63.40
14735;DHT22;7458;49.002;8.472;2023-05-07T08:52:04;26.50;63.20
14735;DHT22;7458;49.002;8.472;2023-05-07T08:54:31;26.60;62.90
14735;DHT22;7458;49.002;8.472;2023-05-07T08:56:58;26.90;62.40
14735;DHT22;7458;49.002;8.472;2023-05-07T08:59:25;27.00;62.10
14735;DHT22;7458;49.002;8.472;2023-05-07T09:01:51;27.10;61.40
14735;DHT22;7458;49.002;8.472;2023-05-07T09:04:19;26.90;61.20
14735;DHT22;7458;49.002;8.472;2023-05-07T09:06:45;26.80;61.40
14735;DHT22;7458;49.002;8.472;2023-05-07T09:09:14;26.70;61.20
14735;DHT22;7458;49.002;8.472;2023-05-07T09:11:43;26.60;61.80
14735;DHT22;7458;49.002;8.472;2023-05-07T09:14:09;26.70;62.20
14735;DHT22;7458;49.002;8.472;2023-05-07T09:16:35;26.70;62.20
14735;DHT22;7458;49.002;8.472;2023-05-07T09:19:01;26.60;62.40
14735;DHT22;7458;49.002;8.472;2023-05-07T09:21:27;26.70;62.70
14735;DHT22;7458;49.002;8.472;2023-05-07T09:23:54;26.70;62.90
14735;DHT22;7458;49.002;8.472;2023-05-07T09:26:24;26.80;62.50
14735;DHT22;7458;49.002;8.472;2023-05-07T09:28:51;26.80;62.20
14735;DHT22;7458;49.002;8.472;2023-05-07T09:31:17;26.90;62.80
14735;DHT22;7458;49.002;8.472;2023-05-07T09:33:43;26.80;62.80
14735;DHT22;7458;49.002;8.472;2023-05-07T09:36:09;26.90;62.60
14735;DHT22;7458;49.002;8.472;2023-05-07T09:38:37;27.20;62.70
14735;DHT22;7458;49.002;8.472;2023-05-07T09:41:10;27.00;61.30
14735;DHT22;7458;49.002;8.472;2023-05-07T09:43:39;27.20;61.60
14735;DHT22;7458;49.002;8.472;2023-05-07T09:46:12;27.50;61.40
14735;DHT22;7458;49.002;8.472;2023-05-07T09:48:43;27.50;61.00
14735;DHT22;7458;49.002;8.472;2023-05-07T09:51:51;27.40;59.90
14735;DHT22;7458;49.002;8.472;2023-05-07T09:54:18;27.50;60.10
14735;DHT22;7458;49.002;8.472;2023-05-07T09:56:48;27.40;59.70
14735;DHT22;7458;49.002;8.472;2023-05-07T09:59:15;27.50;60.00
14735;DHT22;7458;49.002;8.472;2023-05-07T10:01:43;27.30;59.70
14735;DHT22;7458;49.002;8.472;2023-05-07T10:04:13;27.50;60.80
14735;DHT22;7458;49.002;8.472;2023-05-07T10:06:40;27.80;59.80
14735;DHT22;7458;49.002;8.472;2023-05-07T10:09:07;27.90;60.20
14735;DHT22;7458;49.002;8.472;2023-05-07T10:11:36;27.90;59.50
14735;DHT22;7458;49.002;8.472;2023-05-07T10:14:03;27.90;59.30
14735;DHT22;7458;49.002;8.472;2023-05-07T10:16:35;27.90;59.20
14735;DHT22;7458;49.002;8.472;2023-05-07T10:19:08;27.90;58.30
14735;DHT22;7458;49.002;8.472;2023-05-07T10:21:39;27.80;59.40
14735;DHT22;7458;49.002;8.472;2023-05-07T10:24:16;28.10;58.80
14735;DHT22;7458;49.002;8.472;2023-05-07T10:26:49;28.30;58.80
14735;DHT22;7458;49.002;8.472;2023-05-07T10:34:44;28.10;58.70
14735;DHT22;7458;49.002;8.472;2023-05-07T10:37:14;28.10;58.60
14735;DHT22;7458;49.002;8.472;2023-05-07T10:39:40;31.60;60.60
14735;DHT22;7458;49.002;8.472;2023-05-07T10:42:13;28.40;58.40
14735;DHT22;7458;49.002;8.472;2023-05-07T10:44:40;28.30;57.60
14735;DHT22;7458;49.002;8.472;2023-05-07T10:47:08;28.40;57.60
14735;DHT22;7458;49.002;8.472;2023-05-07T10:50:31;28.50;57.40
14735;DHT22;7458;49.002;8.472;2023-05-07T10:52:32;28.70;57.90
14735;DHT22;7458;49.002;8.472;2023-05-07T10:57:42;28.90;57.00
14735;DHT22;7458;49.002;8.472;2023-05-07T11:05:28;28.80;56.20
14735;DHT22;7458;49.002;8.472;2023-05-07T11:08:05;29.00;56.90
14735;DHT22;7458;49.002;8.472;2023-05-07T11:13:17;29.10;55.40
14735;DHT22;7458;49.002;8.472;2023-05-07T11:15:48;29.10;56.10
14735;DHT22;7458;49.002;8.472;2023-05-07T11:18:15;29.30;55.80
14735;DHT22;7458;49.002;8.472;2023-05-07T11:28:30;29.50;55.10
14735;DHT22;7458;49.002;8.472;2023-05-07T11:30:57;29.40;54.10
14735;DHT22;7458;49.002;8.472;2023-05-07T11:33:23;29.40;54.80
14735;DHT22;7458;49.002;8.472;2023-05-07T11:35:53;29.10;54.30
14735;DHT22;7458;49.002;8.472;2023-05-07T11:38:19;29.40;55.10
14735;DHT22;7458;49.002;8.472;2023-05-07T11:40:59;29.60;55.20
14735;DHT22;7458;49.002;8.472;2023-05-07T11:43:30;29.20;54.50
14735;DHT22;7458;49.002;8.472;2023-05-07T11:46:08;29.10;54.50
14735;DHT22;7458;49.002;8.472;2023-05-07T11:48:35;29.00;55.10
14735;DHT22;7458;49.002;8.472;2023-05-07T11:51:04;29.00;55.10
14735;DHT22;7458;49.002;8.472;2023-05-07T11:53:38;29.20;55.80
14735;DHT22;7458;49.002;8.472;2023-05-07T11:56:07;29.50;55.50
14735;DHT22;7458;49.002;8.472;2023-05-07T11:58:40;29.70;54.60
14735;DHT22;7458;49.002;8.472;2023-05-07T12:01:11;29.70;54.70
14735;DHT22;7458;49.002;8.472;2023-05-07T12:03:43;29.80;54.00
14735;DHT22;7458;49.002;8.472;2023-05-07T12:06:11;29.70;53.90
14735;DHT22;7458;49.002;8.472;2023-05-07T12:08:39;29.70;54.40
14735;DHT22;7458;49.002;8.472;2023-05-07T12:11:08;29.80;54.40
14735;DHT22;7458;49.002;8.472;2023-05-07T12:13:37;29.80;54.10
14735;DHT22;7458;49.002;8.472;2023-05-07T12:16:06;29.80;53.40
14735;DHT22;7458;49.002;8.472;2023-05-07T12:18:34;29.90;54.00
14735;DHT22;7458;49.002;8.472;2023-05-07T12:21:01;29.70;52.80
14735;DHT22;7458;49.002;8.472;2023-05-07T12:23:29;29.80;53.60
14735;DHT22;7458;49.002;8.472;2023-05-07T12:25:55;29.70;53.50
14735;DHT22;7458;49.002;8.472;2023-05-07T12:28:21;29.70;53.30
14735;DHT22;7458;49.002;8.472;2023-05-07T12:30:48;29.50;53.60
14735;DHT22;7458;49.002;8.472;2023-05-07T12:33:23;29.60;53.90
14735;DHT22;7458;49.002;8.472;2023-05-07T12:35:50;29.60;53.50
14735;DHT22;7458;49.002;8.472;2023-05-07T12:38:17;29.50;53.60
14735;DHT22;7458;49.002;8.472;2023-05-07T12:40:54;29.50;54.30
14735;DHT22;7458;49.002;8.472;2023-05-07T12:43:21;29.60;54.20
14735;DHT22;7458;49.002;8.472;2023-05-07T12:45:52;29.60;53.40
14735;DHT22;7458;49.002;8.472;2023-05-07T12:48:21;29.70;53.90
14735;DHT22;7458;49.002;8.472;2023-05-07T12:50:53;29.50;53.80
14735;DHT22;7458;49.002;8.472;2023-05-07T12:53:22;29.20;54.00
14735;DHT22;7458;49.002;8.472;2023-05-07T12:55:53;29.30;54.20
14735;DHT22;7458;49.002;8.472;2023-05-07T13:00:54;29.10;55.00
14735;DHT22;7458;49.002;8.472;2023-05-07T13:05:57;29.00;54.90
14735;DHT22;7458;49.002;8.472;2023-05-07T13:08:39;29.00;54.70
14735;DHT22;7458;49.002;8.472;2023-05-07T13:11:09;28.90;55.10
14735;DHT22;7458;49.002;8.472;2023-05-07T13:13:37;28.90;55.20
14735;DHT22;7458;49.002;8.472;2023-05-07T13:16:05;28.80;54.70
14735;DHT22;7458;49.002;8.472;2023-05-07T13:18:33;28.80;54.70
14735;DHT22;7458;49.002;8.472;2023-05-07T13:21:00;28.90;54.30
14735;DHT22;7458;49.002;8.472;2023-05-07T13:23:27;28.90;53.80
14735;DHT22;7458;49.002;8.472;2023-05-07T13:25:53;28.90;54.30
14735;DHT22;7458;49.002;8.472;2023-05-07T13:28:20;29.10;53.70
14735;DHT22;7458;49.002;8.472;2023-05-07T13:30:46;28.90;53.50
14735;DHT22;7458;49.002;8.472;2023-05-07T13:33:13;28.90;53.20
14735;DHT22;7458;49.002;8.472;2023-05-07T13:35:39;28.90;54.20
14735;DHT22;7458;49.002;8.472;2023-05-07T13:38:05;28.70;53.80
14735;DHT22;7458;49.002;8.472;2023-05-07T13:40:31;28.70;53.80
14735;DHT22;7458;49.002;8.472;2023-05-07T13:42:58;28.50;54.20
14735;DHT22;7458;49.002;8.472;2023-05-07T13:45:25;28.30;54.60
14735;DHT22;7458;49.002;8.472;2023-05-07T13:47:51;28.10;54.90
14735;DHT22;7458;49.002;8.472;2023-05-07T13:50:17;27.90;55.90
14735;DHT22;7458;49.002;8.472;2023-05-07T13:52:44;27.90;55.90
14735;DHT22;7458;49.002;8.472;2023-05-07T13:55:17;27.80;51.80
14735;DHT22;7458;49.002;8.472;2023-05-07T13:57:43;27.40;49.20
14735;DHT22;7458;49.002;8.472;2023-05-07T14:00:10;27.10;49.60
14735;DHT22;7458;49.002;8.472;2023-05-07T14:02:36;26.80;49.90
14735;DHT22;7458;49.002;8.472;2023-05-07T14:05:02;26.80;50.70
14735;DHT22;7458;49.002;8.472;2023-05-07T14:07:28;26.80;51.00
14735;DHT22;7458;49.002;8.472;2023-05-07T14:09:54;26.60;52.40
14735;DHT22;7458;49.002;8.472;2023-05-07T14:12:20;26.70;59.70
14735;DHT22;7458;49.002;8.472;2023-05-07T14:14:46;26.30;53.00
14735;DHT22;7458;49.002;8.472;2023-05-07T14:17:12;26.00;53.70
14735;DHT22;7458;49.002;8.472;2023-05-07T14:19:38;25.80;54.70
14735;DHT22;7458;49.002;8.472;2023-05-07T14:22:04;25.60;54.90
14735;DHT22;7458;49.002;8.472;2023-05-07T14:24:29;25.40;55.60
14735;DHT22;7458;49.002;8.472;2023-05-07T14:26:55;25.30;55.80
14735;DHT22;7458;49.002;8.472;2023-05-07T14:29:21;25.40;56.20
14735;DHT22;7458;49.002;8.472;2023-05-07T14:31:48;25.60;55.80
14735;DHT22;7458;49.002;8.472;2023-05-07T14:34:13;25.80;55.00
14735;DHT22;7458;49.002;8.472;2023-05-07T14:36:39;25.80;55.40
14735;DHT22;7458;49.002;8.472;2023-05-07T14:39:05;25.90;55.10
14735;DHT22;7458;49.002;8.472;2023-05-07T14:41:31;26.00;55.20
14735;DHT22;7458;49.002;8.472;2023-05-07T14:43:58;25.90;54.60
14735;DHT22;7458;49.002;8.472;2023-05-07T14:46:24;25.90;54.50
14735;DHT22;7458;49.002;8.472;2023-05-07T14:48:51;25.70;54.40
14735;DHT22;7458;49.002;8.472;2023-05-07T14:51:16;25.30;54.80
14735;DHT22;7458;49.002;8.472;2023-05-07T14:53:42;25.20;55.70
14735;DHT22;7458;49.002;8.472;2023-05-07T14:56:08;25.10;55.80
14735;DHT22;7458;49.002;8.472;2023-05-07T14:58:34;25.20;56.70
14735;DHT22;7458;49.002;8.472;2023-05-07T15:01:00;25.30;57.40
14735;DHT22;7458;49.002;8.472;2023-05-07T15:03:27;25.40;57.90
14735;DHT22;7458;49.002;8.472;2023-05-07T15:05:53;25.50;58.20
14735;DHT22;7458;49.002;8.472;2023-05-07T15:08:19;25.40;57.90
14735;DHT22;7458;49.002;8.472;2023-05-07T15:10:45;25.10;58.40
14735;DHT22;7458;49.002;8.472;2023-05-07T15:13:11;25.00;59.00
14735;DHT22;7458;49.002;8.472;2023-05-07T15:15:38;25.00;58.90
14735;DHT22;7458;49.002;8.472;2023-05-07T15:18:05;25.00;59.60
14735;DHT22;7458;49.002;8.472;2023-05-07T15:20:31;25.00;59.50
14735;DHT22;7458;49.002;8.472;2023-05-07T15:22:56;24.90;59.30
14735;DHT22;7458;49.002;8.472;2023-05-07T15:25:23;24.90;60.40
14735;DHT22;7458;49.002;8.472;2023-05-07T15:27:49;25.00;60.20
14735;DHT22;7458;49.002;8.472;2023-05-07T15:30:15;25.10;60.50
14735;DHT22;7458;49.002;8.472;2023-05-07T15:32:42;25.00;60.50
14735;DHT22;7458;49.002;8.472;2023-05-07T15:35:08;25.00;61.00
14735;DHT22;7458;49.002;8.472;2023-05-07T15:37:35;24.70;61.60
14735;DHT22;7458;49.002;8.472;2023-05-07T15:40:01;24.50;62.60
14735;DHT22;7458;49.002;8.472;2023-05-07T15:42:32;24.30;72.50
14735;DHT22;7458;49.002;8.472;2023-05-07T15:44:59;24.20;63.90
14735;DHT22;7458;49.002;8.472;2023-05-07T15:47:26;24.30;64.30
14735;DHT22;7458;49.002;8.472;2023-05-07T15:49:52;24.30;64.30
14735;DHT22;7458;49.002;8.472;2023-05-07T15:52:18;24.30;73.10
14735;DHT22;7458;49.002;8.472;2023-05-07T15:54:44;24.40;65.00
14735;DHT22;7458;49.002;8.472;2023-05-07T15:57:10;24.30;65.90
14735;DHT22;7458;49.002;8.472;2023-05-07T15:59:36;24.30;65.90
14735;DHT22;7458;49.002;8.472;2023-05-07T16:02:02;24.30;66.40
14735;DHT22;7458;49.002;8.472;2023-05-07T16:04:28;24.30;66.20
14735;DHT22;7458;49.002;8.472;2023-05-07T16:06:54;24.50;66.20
14735;DHT22;7458;49.002;8.472;2023-05-07T16:09:19;24.60;66.10
14735;DHT22;7458;49.002;8.472;2023-05-07T16:11:45;24.60;66.00
14735;DHT22;7458;49.002;8.472;2023-05-07T16:14:11;24.70;67.30
14735;DHT22;7458;49.002;8.472;2023-05-07T16:16:38;24.50;68.00
14735;DHT22;7458;49.002;8.472;2023-05-07T16:19:05;24.30;69.30
14735;DHT22;7458;49.002;8.472;2023-05-07T16:21:32;24.10;70.10
14735;DHT22;7458;49.002;8.472;2023-05-07T16:23:59;24.10;70.70
14735;DHT22;7458;49.002;8.472;2023-05-07T16:26:25;23.90;71.80
14735;DHT22;7458;49.002;8.472;2023-05-07T16:28:51;23.80;72.60
14735;DHT22;7458;49.002;8.472;2023-05-07T16:31:17;23.70;73.70
14735;DHT22;7458;49.002;8.472;2023-05-07T16:33:43;23.50;74.90
14735;DHT22;7458;49.002;8.472;2023-05-07T16:36:12;23.10;76.40
14735;DHT22;7458;49.002;8.472;2023-05-07T16:38:38;23.00;76.90
14735;DHT22;7458;49.002;8.472;2023-05-07T16:41:03;23.00;77.40
14735;DHT22;7458;49.002;8.472;2023-05-07T16:43:32;22.80;78.10
14735;DHT22;7458;49.002;8.472;2023-05-07T16:46:00;22.60;78.80
14735;DHT22;7458;49.002;8.472;2023-05-07T16:48:26;22.60;79.60